Terminal Aerodrome Forecast
Issued by NWS

Home | Current Version | Previous Version | Text Only | Print | Product List | Glossary On
Versions: 1 2 3 4 5 6 7 8 9 10 11 12 13 14 15 16 17 18 19 20
000
FTUS46 KLOX 021500 AAB
TAFBUR
TAF AMD
KBUR 021558Z 0216/0312 00000KT 6SM HZ SKC
     FM021700 13006KT P6SM SKC
     FM021900 18008KT P6SM SKC
     FM030400 VRB03KT P6SM SKC
     FM030900 VRB03KT P6SM OVC012=

USA.gov is the U.S. government's official web portal to all federal, state and local government web resources and services.